createdAt,value
2023-04-10T00:00:00.363Z,24.02
2023-04-10T00:02:28.005Z,24.58
2023-04-10T00:04:55.645Z,25.45
2023-04-10T00:07:23.144Z,27.95
2023-04-10T00:09:52.058Z,29.40
2023-04-10T00:12:19.461Z,35.78
2023-04-10T00:14:47.012Z,35.17
2023-04-10T00:17:14.563Z,34.80
2023-04-10T00:19:42.069Z,33.65
2023-04-10T00:22:09.540Z,31.90
2023-04-10T00:24:36.997Z,30.50
2023-04-10T00:27:05.848Z,30.88
2023-04-10T00:29:33.348Z,31.55
2023-04-10T00:32:00.966Z,31.27
2023-04-10T00:34:28.556Z,30.60
2023-04-10T00:36:56.457Z,31.92
2023-04-10T00:39:23.966Z,34.08
2023-04-10T00:41:51.425Z,34.25
2023-04-10T00:44:20.276Z,32.75
2023-04-10T00:46:47.757Z,30.73
2023-04-10T00:49:15.468Z,36.35
2023-04-10T00:51:43.735Z,32.28
2023-04-10T00:54:12.102Z,31.15
2023-04-10T00:56:39.591Z,31.25
2023-04-10T00:59:07.420Z,28.98
2023-04-10T01:01:45.415Z,29.98
2023-04-10T01:04:13.860Z,30.13
2023-04-10T01:06:54.375Z,29.30
2023-04-10T01:09:34.145Z,27.65
2023-04-10T01:12:09.661Z,25.92
2023-04-10T01:14:46.673Z,24.63
2023-04-10T01:17:19.628Z,27.08
2023-04-10T01:20:04.091Z,25.00
2023-04-10T01:22:37.259Z,25.08
2023-04-10T01:25:25.500Z,25.15
2023-04-10T01:28:04.843Z,23.60
2023-04-10T01:30:36.527Z,23.50
2023-04-10T01:33:05.178Z,22.42
2023-04-10T01:35:33.704Z,24.50
2023-04-10T01:38:02.392Z,23.10
2023-04-10T01:40:30.595Z,20.13
2023-04-10T01:42:58.931Z,19.23
2023-04-10T01:45:28.821Z,19.13
2023-04-10T01:47:57.909Z,17.48
2023-04-10T01:50:27.945Z,18.30
2023-04-10T01:52:55.881Z,20.23
2023-04-10T01:55:23.452Z,21.73
2023-04-10T01:57:51.891Z,22.67
2023-04-10T02:00:19.473Z,23.08
2023-04-10T02:02:47.150Z,22.45
2023-04-10T02:05:16.942Z,23.73
2023-04-10T02:07:46.974Z,23.67
2023-04-10T02:10:17.652Z,22.73
2023-04-10T02:12:48.103Z,23.60
2023-04-10T02:15:17.910Z,23.23
2023-04-10T02:17:46.164Z,24.75
2023-04-10T02:20:14.155Z,23.55
2023-04-10T02:22:44.480Z,23.70
2023-04-10T02:25:12.409Z,26.23
2023-04-10T02:27:40.624Z,28.23
2023-04-10T02:30:09.139Z,37.08
2023-04-10T02:32:36.943Z,41.17
2023-04-10T02:35:05.443Z,39.92
2023-04-10T02:37:33.266Z,37.30
2023-04-10T02:40:02.245Z,34.97
2023-04-10T02:42:29.783Z,33.55
2023-04-10T02:44:57.281Z,30.00
2023-04-10T02:47:24.970Z,31.35
2023-04-10T02:49:52.693Z,29.98
2023-04-10T02:52:20.200Z,29.90
2023-04-10T02:54:47.813Z,30.15
2023-04-10T02:57:17.116Z,30.27
2023-04-10T02:59:44.632Z,29.40
2023-04-10T03:02:12.341Z,28.77
2023-04-10T03:04:39.971Z,29.20
2023-04-10T03:07:07.528Z,29.50
2023-04-10T03:09:35.350Z,30.88
2023-04-10T03:12:03.016Z,35.50
2023-04-10T03:14:31.789Z,38.42
2023-04-10T03:16:59.415Z,37.95
2023-04-10T03:19:28.104Z,42.15
2023-04-10T03:21:55.772Z,43.08
2023-04-10T03:24:23.288Z,44.50
2023-04-10T03:26:51.991Z,45.28
2023-04-10T03:29:19.436Z,44.75
2023-04-10T03:31:48.426Z,48.45
2023-04-10T03:34:16.900Z,49.85
2023-04-10T03:36:53.549Z,50.13
2023-04-10T03:39:21.324Z,48.78
2023-04-10T03:41:49.157Z,42.45
2023-04-10T03:44:16.889Z,40.85
2023-04-10T03:46:44.503Z,36.90
2023-04-10T03:49:13.475Z,37.75
2023-04-10T03:51:41.072Z,39.63
2023-04-10T03:54:08.651Z,37.83
2023-04-10T03:56:36.094Z,37.85
2023-04-10T03:59:03.681Z,37.90
2023-04-10T04:01:32.936Z,37.53
2023-04-10T04:04:01.114Z,39.25
2023-04-10T04:06:31.183Z,43.53
2023-04-10T04:08:58.945Z,42.90
2023-04-10T04:11:27.775Z,46.72
2023-04-10T04:13:55.506Z,46.75
2023-04-10T04:16:23.300Z,47.22
2023-04-10T04:18:50.951Z,47.13
2023-04-10T04:21:18.451Z,46.13
2023-04-10T04:23:47.341Z,42.40
2023-04-10T04:26:14.848Z,43.55
2023-04-10T04:28:42.366Z,46.60
2023-04-10T04:31:09.893Z,46.75
2023-04-10T04:33:37.445Z,48.15
2023-04-10T04:36:05.496Z,41.58
2023-04-10T04:38:33.080Z,42.58
2023-04-10T04:41:01.972Z,42.30
2023-04-10T04:43:29.425Z,40.25
2023-04-10T04:45:56.982Z,41.22
2023-04-10T04:48:24.582Z,41.00
2023-04-10T04:50:52.124Z,40.50
2023-04-10T04:53:19.562Z,41.67
2023-04-10T04:55:47.084Z,40.83
2023-04-10T04:58:15.832Z,39.58
2023-04-10T05:00:43.305Z,36.60
2023-04-10T05:03:11.029Z,35.60
2023-04-10T05:05:38.560Z,33.05
2023-04-10T05:08:06.107Z,33.85
2023-04-10T05:10:33.587Z,37.38
2023-04-10T05:13:01.075Z,36.97
2023-04-10T05:15:29.969Z,34.20
2023-04-10T05:17:57.624Z,33.75
2023-04-10T05:20:26.297Z,32.75
2023-04-10T05:22:54.006Z,29.88
2023-04-10T05:25:21.516Z,28.90
2023-04-10T05:27:49.090Z,28.02
2023-04-10T05:30:16.744Z,27.27
2023-04-10T05:32:46.142Z,25.42
2023-04-10T05:35:13.755Z,29.17
2023-04-10T05:37:41.310Z,29.58
2023-04-10T05:40:10.255Z,28.27
2023-04-10T05:42:37.699Z,28.05
2023-04-10T05:45:05.989Z,29.73
2023-04-10T05:47:33.468Z,30.83
2023-04-10T05:50:02.447Z,30.20
2023-04-10T05:52:29.943Z,31.38
2023-04-10T05:54:57.430Z,32.28
2023-04-10T05:57:26.076Z,33.15
2023-04-10T05:59:53.590Z,31.13
2023-04-10T06:02:21.919Z,31.58
2023-04-10T06:04:49.827Z,32.30
2023-04-10T06:07:18.866Z,32.67
2023-04-10T06:09:46.371Z,32.42
2023-04-10T06:12:13.819Z,33.10
2023-04-10T06:14:41.542Z,30.52
2023-04-10T06:17:09.090Z,29.17
2023-04-10T06:19:36.600Z,30.55
2023-04-10T06:22:04.154Z,29.25
2023-04-10T06:24:33.091Z,32.17
2023-04-10T06:27:00.869Z,33.10
2023-04-10T06:29:28.467Z,32.35
2023-04-10T06:31:56.710Z,36.30
2023-04-10T06:34:24.410Z,34.92
2023-04-10T06:36:51.961Z,36.58
2023-04-10T06:39:19.726Z,35.00
2023-04-10T06:41:48.484Z,35.67
2023-04-10T06:44:16.990Z,37.53
2023-04-10T06:46:44.668Z,38.30
2023-04-10T06:49:12.408Z,37.95
2023-04-10T06:51:39.869Z,40.20
2023-04-10T06:54:07.351Z,39.50
2023-04-10T06:56:34.858Z,40.15
2023-04-10T06:59:03.792Z,40.60
2023-04-10T07:01:31.256Z,41.50
2023-04-10T07:03:58.741Z,40.97
2023-04-10T07:06:27.135Z,42.35
2023-04-10T07:08:54.867Z,43.40
2023-04-10T07:11:22.710Z,41.53
2023-04-10T07:13:53.865Z,39.88
2023-04-10T07:16:22.955Z,40.22
2023-04-10T07:18:50.546Z,37.03
2023-04-10T07:21:18.031Z,37.95
2023-04-10T07:23:45.522Z,35.63
2023-04-10T07:26:13.009Z,35.65
2023-04-10T07:28:40.502Z,34.45
2023-04-10T07:31:08.893Z,35.03
2023-04-10T07:33:39.050Z,33.72
2023-04-10T07:36:07.310Z,34.97
2023-04-10T07:38:34.792Z,33.13
2023-04-10T07:41:02.416Z,34.13
2023-04-10T07:43:30.042Z,33.95
2023-04-10T07:45:57.693Z,33.47
2023-04-10T07:48:25.708Z,32.20
2023-04-10T07:50:54.762Z,32.80
2023-04-10T07:53:22.316Z,34.00
2023-04-10T07:55:50.879Z,34.58
2023-04-10T07:58:18.435Z,35.47
2023-04-10T08:00:46.081Z,33.45
2023-04-10T08:03:16.189Z,34.65
2023-04-10T08:05:43.952Z,30.30
2023-04-10T08:08:12.854Z,30.70
2023-04-10T08:10:40.256Z,30.10
2023-04-10T08:13:07.832Z,32.92
2023-04-10T08:15:35.662Z,32.47
2023-04-10T08:18:03.286Z,32.03
2023-04-10T08:20:36.776Z,28.60
2023-04-10T08:23:17.014Z,31.05
2023-04-10T08:25:49.030Z,26.77
2023-04-10T08:28:16.527Z,28.70
2023-04-10T08:30:44.132Z,28.48
2023-04-10T08:33:11.647Z,28.55
2023-04-10T08:35:39.172Z,27.48
2023-04-10T08:40:38.387Z,28.92
2023-04-10T08:43:07.378Z,25.80
2023-04-10T08:45:34.930Z,27.02
2023-04-10T08:48:03.949Z,26.90
2023-04-10T08:50:32.343Z,22.58
2023-04-10T08:53:01.312Z,24.90
2023-04-10T08:55:28.887Z,24.40
2023-04-10T08:58:01.274Z,24.08
2023-04-10T09:00:31.639Z,23.88
2023-04-10T09:03:00.143Z,24.10
2023-04-10T09:05:29.071Z,24.35
2023-04-10T09:07:56.747Z,23.45
2023-04-10T09:10:24.346Z,24.23
2023-04-10T09:12:51.774Z,23.38
2023-04-10T09:15:19.336Z,21.90
2023-04-10T09:17:57.721Z,23.58
2023-04-10T09:20:27.027Z,22.17
2023-04-10T09:22:54.700Z,22.33
2023-04-10T09:25:34.338Z,22.08
2023-04-10T09:28:03.691Z,22.20
2023-04-10T09:30:37.780Z,20.13
2023-04-10T09:33:22.404Z,21.40
2023-04-10T09:35:50.847Z,21.33
2023-04-10T09:38:19.634Z,20.45
2023-04-10T09:40:48.176Z,20.27
2023-04-10T09:43:23.595Z,20.92
2023-04-10T09:45:52.253Z,20.20
2023-04-10T09:48:21.415Z,17.85
2023-04-10T09:50:49.144Z,19.70
2023-04-10T09:53:19.296Z,17.52
2023-04-10T09:55:47.915Z,18.45
2023-04-10T09:58:15.768Z,18.08
2023-04-10T10:00:44.541Z,18.77
2023-04-10T10:03:13.316Z,16.90
2023-04-10T10:05:44.596Z,14.77
2023-04-10T10:08:12.934Z,14.57
2023-04-10T10:10:42.497Z,14.15
2023-04-10T10:13:12.185Z,16.20
2023-04-10T10:15:44.236Z,14.80
2023-04-10T10:18:19.334Z,16.80
2023-04-10T10:20:48.357Z,16.75
2023-04-10T10:23:17.449Z,15.85
2023-04-10T10:25:46.016Z,15.10
2023-04-10T10:28:14.418Z,14.95
2023-04-10T10:30:42.167Z,16.63
2023-04-10T10:33:09.732Z,15.38
2023-04-10T10:35:37.618Z,16.42
2023-04-10T10:38:06.481Z,16.17
2023-04-10T10:40:36.187Z,15.98
2023-04-10T10:43:12.391Z,15.13
2023-04-10T10:45:42.344Z,15.52
2023-04-10T10:48:11.439Z,14.75
2023-04-10T10:50:57.412Z,14.68
2023-04-10T10:53:36.898Z,14.98
2023-04-10T10:56:36.240Z,13.48
2023-04-10T10:59:03.719Z,15.25
2023-04-10T11:01:31.563Z,15.07
2023-04-10T11:04:00.171Z,13.93
2023-04-10T11:06:51.140Z,14.15
2023-04-10T11:09:51.099Z,13.02
2023-04-10T11:12:20.966Z,13.70
2023-04-10T11:14:58.361Z,13.50
2023-04-10T11:17:48.650Z,14.02
2023-04-10T11:20:16.305Z,14.43
2023-04-10T11:23:09.983Z,13.80
2023-04-10T11:25:52.337Z,14.20
2023-04-10T11:28:36.544Z,13.00
2023-04-10T11:31:19.539Z,13.63
2023-04-10T11:33:47.987Z,13.13
2023-04-10T11:36:17.466Z,12.00
2023-04-10T11:38:55.595Z,11.52
2023-04-10T11:41:28.509Z,12.93
2023-04-10T11:43:56.352Z,12.40
2023-04-10T11:46:23.934Z,11.50
2023-04-10T11:48:54.458Z,12.15
2023-04-10T11:51:22.837Z,11.13
2023-04-10T11:53:50.445Z,12.38
2023-04-10T11:56:19.688Z,12.05
2023-04-10T11:58:50.654Z,12.32
2023-04-10T12:01:22.427Z,11.80
2023-04-10T12:06:19.621Z,12.95
2023-04-10T12:08:49.560Z,12.20
2023-04-10T12:11:20.332Z,11.43
2023-04-10T12:13:49.713Z,11.57
2023-04-10T12:16:17.308Z,12.18
2023-04-10T12:18:45.492Z,11.35
2023-04-10T12:21:13.174Z,11.98
2023-04-10T12:23:41.066Z,12.65
2023-04-10T12:26:11.077Z,12.75
2023-04-10T12:28:40.246Z,11.52
2023-04-10T12:31:10.001Z,12.00
2023-04-10T12:33:37.833Z,12.25
2023-04-10T12:36:06.114Z,10.50
2023-04-10T12:38:40.539Z,11.57
2023-04-10T12:41:08.789Z,10.45
2023-04-10T12:43:37.559Z,10.77
2023-04-10T12:46:06.687Z,9.35
2023-04-10T12:48:35.888Z,10.18
2023-04-10T12:51:04.068Z,9.93
2023-04-10T12:53:31.924Z,10.57
2023-04-10T12:56:01.467Z,10.50
2023-04-10T12:58:30.989Z,10.02
2023-04-10T13:01:00.412Z,10.90
2023-04-10T13:03:28.154Z,11.00
2023-04-10T13:05:57.183Z,10.05
2023-04-10T13:08:24.701Z,9.75
2023-04-10T13:10:52.303Z,9.55
2023-04-10T13:13:20.101Z,9.43
2023-04-10T13:15:47.826Z,9.48
2023-04-10T13:18:15.500Z,9.60
2023-04-10T13:20:43.094Z,9.00
2023-04-10T13:23:11.870Z,8.63
2023-04-10T13:25:40.728Z,9.43
2023-04-10T13:28:11.348Z,7.88
2023-04-10T13:30:40.230Z,8.57
2023-04-10T13:33:08.508Z,7.70
2023-04-10T13:35:36.123Z,9.23
2023-04-10T13:38:03.867Z,7.07
2023-04-10T13:40:33.331Z,7.80
2023-04-10T13:43:00.845Z,8.48
2023-04-10T13:45:29.539Z,7.72
2023-04-10T13:47:57.025Z,7.95
2023-04-10T13:50:24.667Z,7.80
2023-04-10T13:52:53.583Z,8.15
2023-04-10T13:55:21.379Z,8.50
2023-04-10T13:57:50.188Z,7.70
2023-04-10T14:00:18.443Z,7.90
2023-04-10T14:02:46.540Z,7.60
2023-04-10T14:05:14.253Z,9.77
2023-04-10T14:07:51.972Z,8.27
2023-04-10T14:10:20.347Z,8.43
2023-04-10T14:12:47.948Z,8.73
2023-04-10T14:15:16.802Z,8.48
2023-04-10T14:17:44.440Z,9.30
2023-04-10T14:20:13.240Z,9.20
2023-04-10T14:22:41.031Z,8.93
2023-04-10T14:25:13.536Z,8.93
2023-04-10T14:27:41.579Z,9.07
2023-04-10T14:30:10.001Z,9.77
2023-04-10T14:32:39.429Z,9.07
2023-04-10T14:35:08.101Z,9.32
2023-04-10T14:37:35.664Z,9.93
2023-04-10T14:40:04.715Z,10.07
2023-04-10T14:42:32.273Z,10.48
2023-04-10T14:44:59.798Z,10.93
2023-04-10T14:47:27.415Z,9.80
2023-04-10T14:49:56.320Z,9.85
2023-04-10T14:52:24.272Z,9.52
2023-04-10T14:54:51.795Z,10.25
2023-04-10T14:57:19.308Z,9.50
2023-04-10T14:59:46.879Z,9.85
2023-04-10T15:02:14.335Z,10.73
2023-04-10T15:04:41.881Z,10.77
2023-04-10T15:07:10.728Z,10.07
2023-04-10T15:09:38.448Z,9.85
2023-04-10T15:12:06.150Z,9.73
2023-04-10T15:14:33.801Z,10.07
2023-04-10T15:17:01.503Z,9.25
2023-04-10T15:19:29.168Z,9.95
2023-04-10T15:21:56.779Z,10.02
2023-04-10T15:24:25.788Z,10.13
2023-04-10T15:26:53.959Z,10.02
2023-04-10T15:29:21.511Z,10.05
2023-04-10T15:31:51.159Z,9.30
2023-04-10T15:34:19.165Z,9.02
2023-04-10T15:36:46.619Z,9.60
2023-04-10T15:39:14.110Z,9.15
2023-04-10T15:41:42.972Z,8.85
2023-04-10T15:44:10.753Z,9.25
2023-04-10T15:46:38.302Z,8.63
2023-04-10T15:49:05.954Z,9.20
2023-04-10T15:51:33.399Z,8.40
2023-04-10T15:54:03.154Z,9.15
2023-04-10T15:56:30.643Z,9.75
2023-04-10T15:58:59.449Z,10.18
2023-04-10T16:01:26.948Z,10.75
2023-04-10T16:03:55.068Z,12.63
2023-04-10T16:06:25.798Z,9.95
2023-04-10T16:08:53.700Z,9.40
2023-04-10T16:11:21.612Z,8.90
2023-04-10T16:13:49.081Z,10.88
2023-04-10T16:16:19.742Z,9.63
2023-04-10T16:18:47.488Z,11.35
2023-04-10T16:21:15.196Z,10.93
2023-04-10T16:23:42.840Z,10.77
2023-04-10T16:26:10.273Z,9.70
2023-04-10T16:28:37.817Z,10.02
2023-04-10T16:31:05.701Z,9.00
2023-04-10T16:33:34.774Z,10.40
2023-04-10T16:36:04.733Z,8.95
2023-04-10T16:38:34.534Z,9.88
2023-04-10T16:41:03.030Z,10.55
2023-04-10T16:43:30.566Z,9.02
2023-04-10T16:45:58.802Z,10.52
2023-04-10T16:48:26.557Z,9.32
2023-04-10T16:50:55.610Z,9.00
2023-04-10T16:53:23.391Z,9.65
2023-04-10T16:55:57.986Z,10.00
2023-04-10T16:58:25.940Z,9.63
2023-04-10T17:00:53.560Z,8.93
2023-04-10T17:03:21.182Z,8.90
2023-04-10T17:05:48.644Z,8.68
2023-04-10T17:08:17.466Z,8.50
2023-04-10T17:10:44.943Z,10.13
2023-04-10T17:13:12.485Z,10.55
2023-04-10T17:15:39.996Z,11.95
2023-04-10T17:18:07.553Z,12.18
2023-04-10T17:20:36.573Z,8.73
2023-04-10T17:23:04.080Z,8.48
2023-04-10T17:25:33.083Z,9.32
2023-04-10T17:28:00.577Z,9.02
2023-04-10T17:30:28.341Z,9.27
2023-04-10T17:32:56.076Z,8.55
2023-04-10T17:35:23.967Z,8.48
2023-04-10T17:37:51.511Z,8.55
2023-04-10T17:40:19.321Z,8.77
2023-04-10T17:42:48.417Z,9.00
2023-04-10T17:45:16.128Z,10.38
2023-04-10T17:47:43.722Z,11.00
2023-04-10T17:50:11.844Z,9.85
2023-04-10T17:52:39.313Z,9.85
2023-04-10T17:55:07.952Z,9.35
2023-04-10T17:57:35.450Z,8.57
2023-04-10T18:00:08.300Z,8.98
2023-04-10T18:02:35.918Z,9.07
2023-04-10T18:05:03.655Z,9.20
2023-04-10T18:07:31.292Z,9.02
2023-04-10T18:09:58.724Z,9.75
2023-04-10T18:12:26.205Z,9.10
2023-04-10T18:14:53.678Z,8.95
2023-04-10T18:17:22.637Z,9.13
2023-04-10T18:19:51.253Z,9.45
2023-04-10T18:22:18.801Z,8.95
2023-04-10T18:24:47.268Z,9.05
2023-04-10T18:27:15.098Z,14.15
2023-04-10T18:29:43.251Z,11.63
2023-04-10T18:32:10.865Z,13.10
2023-04-10T18:34:39.796Z,11.40
2023-04-10T18:37:09.714Z,10.02
2023-04-10T18:39:38.375Z,9.85
2023-04-10T18:42:09.009Z,10.38
2023-04-10T18:44:36.586Z,9.95
2023-04-10T18:47:05.201Z,9.73
2023-04-10T18:49:33.316Z,10.13
2023-04-10T18:52:02.551Z,9.55
2023-04-10T18:54:30.397Z,10.25
2023-04-10T18:56:58.321Z,10.10
2023-04-10T18:59:27.393Z,10.02
2023-04-10T19:01:55.196Z,9.90
2023-04-10T19:04:22.989Z,10.38
2023-04-10T19:06:51.450Z,9.30
2023-04-10T19:09:20.348Z,9.35
2023-04-10T19:11:48.139Z,9.15
2023-04-10T19:14:15.673Z,10.18
2023-04-10T19:16:43.219Z,9.38
2023-04-10T19:19:10.704Z,10.48
2023-04-10T19:21:38.364Z,9.50
2023-04-10T19:24:06.290Z,10.32
2023-04-10T19:26:35.381Z,10.18
2023-04-10T19:29:02.879Z,10.18
2023-04-10T19:31:30.975Z,10.38
2023-04-10T19:33:58.705Z,9.60
2023-04-10T19:36:27.188Z,10.88
2023-04-10T19:38:57.682Z,11.63
2023-04-10T19:41:26.213Z,10.90
2023-04-10T19:43:55.254Z,10.90
2023-04-10T19:46:23.346Z,10.00
2023-04-10T19:48:51.861Z,10.45
2023-04-10T19:51:19.707Z,10.77
2023-04-10T19:53:47.480Z,11.02
2023-04-10T19:56:16.345Z,9.57
2023-04-10T19:58:46.189Z,10.40
2023-04-10T20:01:15.843Z,10.02
2023-04-10T20:03:43.862Z,9.75
2023-04-10T20:06:11.532Z,10.27
2023-04-10T20:08:38.988Z,10.52
2023-04-10T20:11:07.094Z,10.40
2023-04-10T20:13:34.932Z,10.13
2023-04-10T20:16:03.289Z,9.18
2023-04-10T20:18:32.995Z,10.38
2023-04-10T20:21:00.567Z,10.02
2023-04-10T20:23:28.038Z,9.02
2023-04-10T20:25:55.771Z,9.05
2023-04-10T20:28:23.232Z,8.63
2023-04-10T20:30:50.868Z,8.55
2023-04-10T20:33:18.428Z,8.90
2023-04-10T20:35:47.290Z,8.95
2023-04-10T20:38:14.897Z,8.85
2023-04-10T20:40:42.605Z,8.65
2023-04-10T20:43:12.313Z,9.00
2023-04-10T20:45:40.148Z,8.18
2023-04-10T20:48:09.152Z,8.50
2023-04-10T20:50:37.530Z,9.10
2023-04-10T20:53:06.504Z,8.55
2023-04-10T20:55:35.092Z,9.20
2023-04-10T20:58:02.592Z,9.73
2023-04-10T21:00:30.923Z,9.35
2023-04-10T21:02:58.676Z,8.98
2023-04-10T21:05:26.335Z,9.45
2023-04-10T21:07:54.326Z,8.98
2023-04-10T21:10:23.664Z,8.98
2023-04-10T21:12:51.164Z,9.07
2023-04-10T21:15:18.861Z,9.40
2023-04-10T21:17:46.399Z,8.85
2023-04-10T21:20:14.071Z,9.00
2023-04-10T21:22:41.828Z,9.23
2023-04-10T21:25:10.394Z,9.07
2023-04-10T21:27:39.237Z,10.35
2023-04-10T21:30:08.046Z,9.40
2023-04-10T21:32:35.585Z,9.00
2023-04-10T21:35:03.376Z,9.60
2023-04-10T21:37:31.016Z,9.93
2023-04-10T21:39:58.642Z,9.55
2023-04-10T21:42:26.140Z,9.65
2023-04-10T21:44:55.284Z,8.95
2023-04-10T21:47:22.832Z,9.13
2023-04-10T21:49:50.316Z,9.30
2023-04-10T21:52:17.897Z,9.38
2023-04-10T21:54:45.455Z,9.05
2023-04-10T21:57:12.992Z,9.00
2023-04-10T21:59:40.465Z,9.20
2023-04-10T22:02:10.741Z,9.35
2023-04-10T22:04:44.563Z,9.40
2023-04-10T22:07:19.289Z,9.32
2023-04-10T22:09:46.808Z,9.32
2023-04-10T22:12:14.297Z,10.02
2023-04-10T22:14:42.480Z,9.45
2023-04-10T22:17:11.675Z,9.50
2023-04-10T22:19:39.218Z,8.77
2023-04-10T22:22:06.804Z,9.80
2023-04-10T22:24:35.397Z,8.82
2023-04-10T22:27:02.962Z,9.82
2023-04-10T22:29:30.500Z,9.50
2023-04-10T22:31:58.376Z,10.38
2023-04-10T22:34:27.364Z,10.15
2023-04-10T22:36:54.964Z,9.45
2023-04-10T22:39:22.478Z,9.50
2023-04-10T22:41:50.037Z,9.95
2023-04-10T22:44:17.589Z,9.60
2023-04-10T22:46:48.190Z,10.50
2023-04-10T22:49:17.056Z,9.80
2023-04-10T22:51:46.638Z,10.18
2023-04-10T22:54:15.927Z,9.90
2023-04-10T22:56:44.233Z,9.38
2023-04-10T22:59:11.914Z,10.23
2023-04-10T23:01:39.518Z,9.73
2023-04-10T23:04:07.158Z,9.60
2023-04-10T23:06:34.845Z,10.00
2023-04-10T23:09:03.804Z,9.65
2023-04-10T23:11:31.374Z,10.20
2023-04-10T23:13:58.849Z,9.85
2023-04-10T23:16:26.474Z,10.38
2023-04-10T23:18:54.431Z,11.13
2023-04-10T23:21:22.107Z,10.98
2023-04-10T23:23:49.769Z,10.27
2023-04-10T23:26:18.713Z,11.07
2023-04-10T23:28:46.401Z,11.38
2023-04-10T23:31:13.980Z,12.02
2023-04-10T23:33:41.605Z,10.90
2023-04-10T23:36:09.885Z,11.05
2023-04-10T23:38:37.353Z,10.77
2023-04-10T23:41:05.078Z,11.50
2023-04-10T23:43:33.931Z,10.65
2023-04-10T23:46:01.592Z,10.43
2023-04-10T23:48:29.149Z,9.57
2023-04-10T23:51:03.936Z,10.00
2023-04-10T23:53:31.630Z,10.80
2023-04-10T23:55:59.154Z,10.35
2023-04-10T23:58:26.657Z,10.10
